Time;durP1;ratioP1;P1;durP2;ratioP2;P2;SDS_P1;SDS_P2;PMS_P1;PMS_P2;Temp;Humidity;BMP_temperature;BMP_pressure;BME280_temperature;BME280_humidity;BME280_pressure;Samples;Min_cycle;Max_cycle;Signal;HPM_P1;HPM_P2
2022/04/30 00:02:17;;;;;;;11.75;8.00;;;;;;;;;;4985405;28;20449;-82
2022/04/30 00:04:44;;;;;;;9.80;7.13;;;;;;;;;;4982976;28;20442;-82
2022/04/30 00:07:13;;;;;;;10.07;7.20;;;;;;;;;;4985091;28;20434;-84
2022/04/30 00:09:39;;;;;;;8.63;7.00;;;;;;;;;;4983084;28;20933;-81
2022/04/30 00:12:06;;;;;;;12.18;7.57;;;;;;;;;;4985377;28;20442;-82
2022/04/30 00:14:32;;;;;;;10.82;7.53;;;;;;;;;;4983439;28;20445;-82
2022/04/30 00:17:00;;;;;;;9.23;7.53;;;;;;;;;;4984362;28;20434;-83
2022/04/30 00:19:27;;;;;;;10.82;7.93;;;;;;;;;;4984953;28;20446;-81
2022/04/30 00:21:53;;;;;;;11.83;8.20;;;;;;;;;;4986792;28;20430;-82
2022/04/30 00:24:19;;;;;;;12.88;8.02;;;;;;;;;;4984636;28;20410;-82
2022/04/30 00:26:46;;;;;;;14.88;7.40;;;;;;;;;;4985605;28;20805;-82
2022/04/30 00:29:12;;;;;;;11.95;7.18;;;;;;;;;;4984999;28;20440;-82
2022/04/30 00:31:39;;;;;;;13.27;7.47;;;;;;;;;;4984260;28;20440;-81
2022/04/30 00:34:06;;;;;;;12.38;7.70;;;;;;;;;;4984839;28;20432;-82
2022/04/30 00:36:33;;;;;;;10.20;7.10;;;;;;;;;;4985155;28;20434;-82
2022/04/30 00:38:59;;;;;;;11.60;7.63;;;;;;;;;;4983019;28;20911;-82
2022/04/30 00:41:25;;;;;;;8.90;7.18;;;;;;;;;;4985654;28;20435;-82
2022/04/30 00:43:53;;;;;;;11.40;7.18;;;;;;;;;;4985664;28;20776;-82
2022/04/30 00:46:20;;;;;;;8.07;6.20;;;;;;;;;;4985230;28;20559;-83
2022/04/30 00:48:46;;;;;;;11.10;7.00;;;;;;;;;;4982901;28;20492;-82
2022/04/30 00:51:15;;;;;;;14.55;8.05;;;;;;;;;;4983222;28;20433;-82
2022/04/30 00:53:42;;;;;;;10.70;6.80;;;;;;;;;;4982315;28;20435;-81
2022/04/30 00:56:09;;;;;;;11.57;7.05;;;;;;;;;;4983513;28;20435;-81
2022/04/30 00:58:36;;;;;;;9.57;7.55;;;;;;;;;;4982973;28;20446;-81
2022/04/30 01:01:04;;;;;;;10.60;8.60;;;;;;;;;;4982321;28;20513;-81
2022/04/30 01:03:31;;;;;;;9.23;7.50;;;;;;;;;;4981409;28;20436;-80
2022/04/30 01:05:58;;;;;;;13.45;8.25;;;;;;;;;;4980657;28;20444;-81
2022/04/30 01:08:27;;;;;;;9.82;7.80;;;;;;;;;;4981789;28;20436;-82
2022/04/30 01:10:54;;;;;;;12.20;8.10;;;;;;;;;;4982097;28;20665;-81
2022/04/30 01:13:20;;;;;;;12.25;8.70;;;;;;;;;;4981806;28;20433;-81
2022/04/30 01:15:47;;;;;;;14.20;8.27;;;;;;;;;;4981972;28;20436;-81
2022/04/30 01:18:13;;;;;;;11.23;7.72;;;;;;;;;;4984715;28;20442;-81
2022/04/30 01:20:41;;;;;;;11.77;8.18;;;;;;;;;;4983066;28;20433;-81
2022/04/30 01:23:10;;;;;;;12.68;8.50;;;;;;;;;;4984408;28;20446;-81
2022/04/30 01:25:38;;;;;;;14.90;7.72;;;;;;;;;;4982181;28;20452;-80
2022/04/30 01:28:05;;;;;;;11.40;7.70;;;;;;;;;;4984370;28;20445;-81
2022/04/30 01:30:32;;;;;;;10.38;7.00;;;;;;;;;;4984998;28;20442;-81
2022/04/30 01:38:27;;;;;;;11.15;8.30;;;;;;;;;;4987712;28;20437;-80
2022/04/30 01:40:54;;;;;;;12.43;8.25;;;;;;;;;;4985750;28;20486;-81
2022/04/30 01:43:21;;;;;;;10.18;7.40;;;;;;;;;;4986539;28;20435;-81
2022/04/30 01:45:48;;;;;;;11.10;7.40;;;;;;;;;;4985872;28;20459;-81
2022/04/30 01:48:14;;;;;;;10.10;7.32;;;;;;;;;;4987826;28;20430;-80
2022/04/30 01:50:41;;;;;;;13.43;7.93;;;;;;;;;;4986712;28;20520;-80
2022/04/30 01:53:08;;;;;;;10.73;7.10;;;;;;;;;;4987635;28;20451;-81
2022/04/30 01:55:35;;;;;;;10.63;7.88;;;;;;;;;;4986655;28;20450;-82
2022/04/30 01:58:02;;;;;;;12.00;7.97;;;;;;;;;;4986872;28;20439;-81
2022/04/30 02:00:28;;;;;;;12.40;7.60;;;;;;;;;;4985639;28;20920;-81
2022/04/30 02:02:55;;;;;;;10.45;8.02;;;;;;;;;;4986787;28;20457;-81
2022/04/30 02:05:23;;;;;;;11.20;7.50;;;;;;;;;;4985418;28;20440;-83
2022/04/30 02:07:52;;;;;;;9.20;7.45;;;;;;;;;;4987250;28;20425;-81
2022/04/30 02:10:19;;;;;;;12.20;8.38;;;;;;;;;;4983738;28;20810;-80
2022/04/30 02:12:47;;;;;;;10.10;8.55;;;;;;;;;;4987605;28;20434;-82
2022/04/30 02:15:15;;;;;;;11.60;8.40;;;;;;;;;;4986104;28;20428;-82
2022/04/30 02:17:42;;;;;;;11.80;8.95;;;;;;;;;;4985481;28;20432;-82
2022/04/30 02:20:24;;;;;;;16.20;8.95;;;;;;;;;;4984452;28;20946;-81
2022/04/30 02:22:51;;;;;;;11.18;8.70;;;;;;;;;;4987293;28;20435;-80
2022/04/30 02:25:18;;;;;;;12.47;8.77;;;;;;;;;;4986778;28;20518;-81
2022/04/30 02:27:45;;;;;;;14.32;9.55;;;;;;;;;;4986857;28;20438;-80
2022/04/30 02:30:14;;;;;;;13.00;9.55;;;;;;;;;;4985432;28;20926;-81
2022/04/30 02:32:41;;;;;;;14.75;9.38;;;;;;;;;;4986178;28;20540;-81
2022/04/30 02:35:08;;;;;;;14.45;9.63;;;;;;;;;;4985594;28;20476;-80
2022/04/30 02:37:35;;;;;;;12.20;8.52;;;;;;;;;;4987259;28;20434;-82
2022/04/30 02:40:01;;;;;;;10.95;8.50;;;;;;;;;;4985495;28;20420;-81
2022/04/30 02:42:27;;;;;;;12.97;10.00;;;;;;;;;;4984987;28;20934;-80
2022/04/30 02:44:54;;;;;;;14.50;10.10;;;;;;;;;;4989422;28;20444;-81
2022/04/30 02:47:22;;;;;;;13.55;10.45;;;;;;;;;;4987575;28;20441;-81
2022/04/30 02:49:48;;;;;;;17.30;10.98;;;;;;;;;;4984170;28;20567;-81
2022/04/30 02:52:14;;;;;;;14.75;10.63;;;;;;;;;;4984286;28;20443;-82
2022/04/30 02:54:41;;;;;;;14.00;9.95;;;;;;;;;;4983201;28;20429;-81
2022/04/30 02:57:07;;;;;;;15.25;10.52;;;;;;;;;;4985740;28;20439;-81
2022/04/30 03:02:17;;;;;;;15.43;11.03;;;;;;;;;;4984418;28;20481;-81
2022/04/30 03:04:45;;;;;;;12.70;10.02;;;;;;;;;;4987151;28;20426;-81
2022/04/30 03:07:11;;;;;;;14.52;10.10;;;;;;;;;;4985416;28;20438;-81
2022/04/30 03:09:38;;;;;;;13.77;10.30;;;;;;;;;;4983827;28;20423;-81
2022/04/30 03:12:05;;;;;;;16.88;10.68;;;;;;;;;;4986055;28;20788;-81
2022/04/30 03:14:31;;;;;;;15.55;11.10;;;;;;;;;;4984174;28;20437;-80
2022/04/30 03:22:26;;;;;;;14.07;11.35;;;;;;;;;;4984622;28;20422;-83
2022/04/30 03:24:53;;;;;;;16.17;11.43;;;;;;;;;;4983746;28;20431;-82
2022/04/30 03:27:19;;;;;;;14.27;11.30;;;;;;;;;;4985299;28;20432;-83
2022/04/30 03:29:46;;;;;;;12.70;10.48;;;;;;;;;;4983307;28;20434;-83
2022/04/30 03:32:12;;;;;;;17.20;11.30;;;;;;;;;;4984844;28;20444;-80
2022/04/30 03:34:39;;;;;;;16.15;11.38;;;;;;;;;;4983671;28;20887;-80
2022/04/30 03:37:05;;;;;;;15.43;9.85;;;;;;;;;;4982104;28;20439;-81
2022/04/30 03:39:33;;;;;;;11.77;9.93;;;;;;;;;;4982559;28;20445;-84
2022/04/30 03:41:59;;;;;;;13.85;9.52;;;;;;;;;;4984799;28;20438;-82
2022/04/30 03:44:26;;;;;;;14.57;10.85;;;;;;;;;;4986100;28;20909;-83
2022/04/30 03:46:52;;;;;;;14.90;10.90;;;;;;;;;;4986395;28;20434;-83
2022/04/30 03:49:19;;;;;;;14.05;10.45;;;;;;;;;;4981264;28;20930;-83
2022/04/30 03:51:45;;;;;;;14.63;10.80;;;;;;;;;;4985401;28;20955;-82
2022/04/30 03:54:11;;;;;;;16.50;10.80;;;;;;;;;;4983495;28;20437;-78
2022/04/30 03:56:39;;;;;;;15.90;10.80;;;;;;;;;;4983035;28;20430;-81
2022/04/30 03:59:05;;;;;;;13.98;10.52;;;;;;;;;;4985264;28;20527;-83
2022/04/30 04:01:32;;;;;;;18.15;11.55;;;;;;;;;;4985448;28;20434;-81
2022/04/30 04:04:00;;;;;;;14.20;12.07;;;;;;;;;;4984745;28;20428;-80
2022/04/30 04:06:26;;;;;;;15.40;12.00;;;;;;;;;;4979181;28;20930;-81
2022/04/30 04:08:53;;;;;;;19.42;12.60;;;;;;;;;;4982794;28;20656;-81
2022/04/30 04:11:20;;;;;;;20.30;13.15;;;;;;;;;;4980799;28;20772;-82
2022/04/30 04:19:18;;;;;;;15.38;12.15;;;;;;;;;;4983253;28;20988;-81
2022/04/30 04:21:44;;;;;;;19.63;12.80;;;;;;;;;;4982910;28;20891;-80
2022/04/30 04:26:54;;;;;;;22.15;14.35;;;;;;;;;;4983865;28;20477;-81
2022/04/30 04:29:22;;;;;;;15.90;12.20;;;;;;;;;;4983322;28;20441;-81
2022/04/30 04:31:48;;;;;;;17.65;13.57;;;;;;;;;;4983162;28;20426;-81
2022/04/30 04:34:15;;;;;;;17.08;12.50;;;;;;;;;;4984208;28;20474;-81
2022/04/30 04:36:42;;;;;;;16.67;12.93;;;;;;;;;;4982636;28;20436;-81
2022/04/30 04:39:10;;;;;;;20.33;13.40;;;;;;;;;;4983568;28;20485;-80
2022/04/30 04:41:37;;;;;;;20.95;13.40;;;;;;;;;;4982348;28;20814;-82
2022/04/30 04:44:03;;;;;;;19.83;14.57;;;;;;;;;;4983743;28;20436;-81
2022/04/30 04:46:33;;;;;;;21.33;14.05;;;;;;;;;;4964392;28;22327;-81
2022/04/30 04:48:59;;;;;;;19.00;14.02;;;;;;;;;;4981531;28;20435;-83
2022/04/30 04:51:27;;;;;;;22.20;13.98;;;;;;;;;;4982963;28;20423;-81
2022/04/30 04:53:53;;;;;;;20.40;13.85;;;;;;;;;;4984050;28;20650;-83
2022/04/30 04:56:19;;;;;;;18.83;13.27;;;;;;;;;;4981938;28;20455;-81
2022/04/30 04:58:46;;;;;;;17.50;13.00;;;;;;;;;;4983558;28;20828;-81
2022/04/30 05:01:12;;;;;;;17.90;13.87;;;;;;;;;;4982015;28;20989;-81
2022/04/30 05:03:40;;;;;;;21.92;13.13;;;;;;;;;;4984987;28;20788;-81
2022/04/30 05:06:06;;;;;;;21.45;13.45;;;;;;;;;;4985925;28;20425;-80
2022/04/30 05:08:32;;;;;;;17.30;12.88;;;;;;;;;;4987045;28;20432;-82
2022/04/30 05:10:58;;;;;;;20.98;12.70;;;;;;;;;;4986895;28;20446;-81
2022/04/30 05:13:25;;;;;;;19.83;13.00;;;;;;;;;;4987216;28;20442;-81
2022/04/30 05:15:51;;;;;;;20.63;12.67;;;;;;;;;;4985086;28;20857;-81
2022/04/30 05:18:17;;;;;;;18.35;12.85;;;;;;;;;;4986779;28;20441;-81
2022/04/30 05:20:45;;;;;;;19.13;12.57;;;;;;;;;;4988774;28;20495;-83
2022/04/30 05:23:11;;;;;;;19.03;12.20;;;;;;;;;;4986916;28;20439;-81
2022/04/30 05:25:40;;;;;;;20.30;12.93;;;;;;;;;;4989897;28;20784;-79
2022/04/30 05:28:06;;;;;;;25.08;13.25;;;;;;;;;;4989195;28;20449;-81
2022/04/30 05:30:33;;;;;;;22.10;13.23;;;;;;;;;;4988841;28;20440;-81
2022/04/30 05:32:59;;;;;;;23.40;13.25;;;;;;;;;;4989390;28;20436;-81
2022/04/30 05:35:26;;;;;;;23.83;14.88;;;;;;;;;;4989742;28;20439;-81
2022/04/30 05:37:53;;;;;;;20.23;13.95;;;;;;;;;;4989516;28;20434;-81
2022/04/30 05:40:20;;;;;;;22.95;13.43;;;;;;;;;;4986604;28;20424;-83
2022/04/30 05:42:46;;;;;;;19.77;14.10;;;;;;;;;;4989206;28;20797;-82
2022/04/30 05:45:12;;;;;;;19.40;13.30;;;;;;;;;;4986045;28;20939;-82
2022/04/30 05:47:38;;;;;;;22.45;13.88;;;;;;;;;;4987024;28;20433;-83
2022/04/30 05:50:05;;;;;;;23.50;14.23;;;;;;;;;;4983293;28;20442;-80
2022/04/30 05:52:33;;;;;;;20.13;13.13;;;;;;;;;;4985754;28;20442;-81
2022/04/30 05:55:02;;;;;;;26.38;13.75;;;;;;;;;;4986340;28;20806;-81
2022/04/30 05:57:28;;;;;;;23.27;12.90;;;;;;;;;;4987090;28;20487;-81
2022/04/30 05:59:54;;;;;;;23.30;13.00;;;;;;;;;;4984453;28;20420;-81
2022/04/30 06:02:21;;;;;;;18.15;12.20;;;;;;;;;;4989943;28;20414;-80
2022/04/30 06:04:47;;;;;;;24.00;12.43;;;;;;;;;;4986389;28;20442;-81
2022/04/30 06:07:13;;;;;;;20.03;12.40;;;;;;;;;;4987534;28;20525;-85
2022/04/30 06:09:40;;;;;;;18.17;11.98;;;;;;;;;;4986253;28;20420;-81
2022/04/30 06:12:09;;;;;;;18.05;11.98;;;;;;;;;;4988882;28;20442;-81
2022/04/30 06:14:35;;;;;;;16.27;11.23;;;;;;;;;;4986036;28;20443;-81
2022/04/30 06:17:02;;;;;;;19.35;11.88;;;;;;;;;;4984912;28;20445;-81
2022/04/30 06:19:28;;;;;;;18.48;11.00;;;;;;;;;;4986703;28;20454;-84
2022/04/30 06:21:54;;;;;;;15.55;10.63;;;;;;;;;;4988545;28;20442;-82
2022/04/30 06:24:20;;;;;;;17.95;10.90;;;;;;;;;;4986788;28;20434;-81
2022/04/30 06:26:47;;;;;;;17.70;10.48;;;;;;;;;;4986439;28;20439;-81
2022/04/30 06:29:15;;;;;;;16.45;10.27;;;;;;;;;;4984973;28;20434;-83
2022/04/30 06:31:41;;;;;;;13.82;9.75;;;;;;;;;;4987190;28;20458;-82
2022/04/30 06:34:08;;;;;;;14.88;9.73;;;;;;;;;;4986363;28;20937;-82
2022/04/30 06:36:34;;;;;;;13.80;9.40;;;;;;;;;;4987234;28;20429;-82
2022/04/30 06:39:00;;;;;;;17.45;9.27;;;;;;;;;;4985427;28;20427;-83
2022/04/30 06:41:27;;;;;;;18.25;10.18;;;;;;;;;;4986146;28;20452;-81
2022/04/30 06:43:56;;;;;;;17.63;9.38;;;;;;;;;;4986366;28;20434;-81
2022/04/30 06:46:24;;;;;;;15.02;9.95;;;;;;;;;;4984296;28;20432;-82
2022/04/30 06:48:50;;;;;;;12.68;8.85;;;;;;;;;;4987440;28;20447;-82
2022/04/30 06:51:16;;;;;;;19.30;9.10;;;;;;;;;;4981429;28;20424;-81
2022/04/30 06:59:11;;;;;;;14.45;9.25;;;;;;;;;;4984672;28;20506;-82
2022/04/30 07:01:43;;;;;;;13.97;9.20;;;;;;;;;;4984101;28;20802;-82
2022/04/30 07:04:10;;;;;;;15.05;8.63;;;;;;;;;;4984828;28;20444;-82
2022/04/30 07:06:37;;;;;;;13.02;8.75;;;;;;;;;;4983736;28;20533;-82
2022/04/30 07:09:04;;;;;;;15.98;9.15;;;;;;;;;;4985108;28;20471;-82
2022/04/30 07:11:31;;;;;;;14.20;9.40;;;;;;;;;;4982614;28;20439;-83
2022/04/30 07:13:58;;;;;;;14.13;8.32;;;;;;;;;;4983872;28;20464;-82
2022/04/30 07:16:24;;;;;;;11.63;8.53;;;;;;;;;;4983846;28;20428;-82
2022/04/30 07:18:51;;;;;;;12.52;8.90;;;;;;;;;;4983731;28;20487;-81
2022/04/30 07:21:18;;;;;;;13.77;8.00;;;;;;;;;;4983459;28;20431;-81
2022/04/30 07:23:44;;;;;;;11.32;8.25;;;;;;;;;;4987051;28;20439;-81
2022/04/30 07:26:10;;;;;;;13.52;6.43;;;;;;;;;;4983722;28;20432;-82
2022/04/30 07:28:37;;;;;;;9.63;6.80;;;;;;;;;;4984654;28;20422;-81
2022/04/30 07:31:03;;;;;;;9.05;5.60;;;;;;;;;;4982248;28;20463;-82
2022/04/30 07:33:29;;;;;;;6.50;4.55;;;;;;;;;;4985025;28;20529;-82
2022/04/30 07:35:58;;;;;;;8.20;4.80;;;;;;;;;;4983790;28;20498;-82
2022/04/30 07:38:24;;;;;;;6.90;4.20;;;;;;;;;;4984631;28;20462;-82
2022/04/30 07:40:52;;;;;;;7.25;4.40;;;;;;;;;;4984778;28;20530;-82
2022/04/30 07:43:18;;;;;;;14.27;5.00;;;;;;;;;;4983767;28;20480;-82
2022/04/30 07:45:44;;;;;;;9.25;6.10;;;;;;;;;;4982160;28;20443;-81
2022/04/30 07:48:11;;;;;;;13.30;6.38;;;;;;;;;;4980313;28;20481;-82
2022/04/30 07:50:37;;;;;;;13.10;7.00;;;;;;;;;;4980810;28;20454;-84
2022/04/30 07:53:05;;;;;;;11.13;6.00;;;;;;;;;;4983423;28;20442;-82
2022/04/30 07:55:32;;;;;;;10.65;5.60;;;;;;;;;;4983156;28;20452;-83
2022/04/30 07:57:58;;;;;;;7.65;5.80;;;;;;;;;;4982646;28;20438;-80
2022/04/30 08:00:24;;;;;;;7.20;5.25;;;;;;;;;;4982173;28;20463;-82
2022/04/30 08:02:51;;;;;;;10.13;5.43;;;;;;;;;;4986001;28;20504;-82
2022/04/30 08:05:17;;;;;;;9.95;5.20;;;;;;;;;;4979820;28;20420;-81
2022/04/30 08:07:43;;;;;;;7.70;5.50;;;;;;;;;;4981999;28;20921;-82
2022/04/30 08:10:11;;;;;;;8.52;5.30;;;;;;;;;;4982062;28;20459;-82
2022/04/30 08:12:37;;;;;;;6.47;4.97;;;;;;;;;;4984271;28;20463;-82
2022/04/30 08:15:04;;;;;;;8.65;4.80;;;;;;;;;;4981864;28;20538;-82
2022/04/30 08:17:30;;;;;;;6.22;4.85;;;;;;;;;;4983885;28;20445;-82
2022/04/30 08:19:56;;;;;;;7.50;4.60;;;;;;;;;;4984512;28;20426;-82
2022/04/30 08:22:23;;;;;;;11.25;4.50;;;;;;;;;;4983264;28;20552;-83
2022/04/30 08:24:49;;;;;;;7.63;5.00;;;;;;;;;;4983896;28;20976;-83
2022/04/30 08:27:17;;;;;;;6.95;4.85;;;;;;;;;;4981860;28;20477;-83
2022/04/30 08:29:44;;;;;;;7.20;5.03;;;;;;;;;;4981498;28;20432;-82
2022/04/30 08:32:11;;;;;;;7.20;4.10;;;;;;;;;;4982947;28;20863;-83
2022/04/30 08:34:37;;;;;;;5.70;4.28;;;;;;;;;;4982726;28;21180;-82
2022/04/30 08:37:03;;;;;;;6.93;4.47;;;;;;;;;;4984707;28;20468;-82
2022/04/30 08:39:31;;;;;;;9.43;4.50;;;;;;;;;;4983524;28;20470;-82
2022/04/30 08:41:58;;;;;;;6.18;4.63;;;;;;;;;;4986167;28;20461;-81
2022/04/30 08:44:25;;;;;;;5.40;3.70;;;;;;;;;;4985924;28;20504;-83
2022/04/30 08:46:52;;;;;;;8.18;4.40;;;;;;;;;;4984989;28;20445;-81
2022/04/30 08:49:18;;;;;;;7.13;4.15;;;;;;;;;;4985324;28;20789;-83
2022/04/30 08:51:45;;;;;;;5.63;4.30;;;;;;;;;;4985776;28;20432;-82
2022/04/30 08:54:11;;;;;;;6.40;4.10;;;;;;;;;;4985012;28;20502;-81
2022/04/30 08:56:37;;;;;;;6.47;3.70;;;;;;;;;;4984282;28;20465;-83
2022/04/30 08:59:05;;;;;;;5.82;4.13;;;;;;;;;;4985445;28;20441;-85
2022/04/30 09:01:32;;;;;;;6.00;4.20;;;;;;;;;;4986163;28;20430;-83
2022/04/30 09:03:59;;;;;;;7.25;3.70;;;;;;;;;;4986688;28;20437;-84
2022/04/30 09:06:25;;;;;;;6.50;3.80;;;;;;;;;;4984297;28;20426;-82
2022/04/30 09:08:52;;;;;;;5.47;3.40;;;;;;;;;;4985279;28;20843;-82
2022/04/30 09:11:26;;;;;;;5.93;4.20;;;;;;;;;;4985349;28;20459;-83
2022/04/30 09:13:53;;;;;;;7.25;4.00;;;;;;;;;;4987769;28;21959;-81
2022/04/30 09:16:20;;;;;;;5.33;3.77;;;;;;;;;;4988036;28;20426;-82
2022/04/30 09:18:48;;;;;;;7.20;4.20;;;;;;;;;;4989716;28;20948;-82
2022/04/30 09:21:15;;;;;;;6.13;3.80;;;;;;;;;;4986927;28;20490;-83
2022/04/30 09:23:41;;;;;;;4.40;2.72;;;;;;;;;;4982778;28;20452;-83
2022/04/30 09:26:07;;;;;;;4.85;2.80;;;;;;;;;;4983554;28;20427;-82
2022/04/30 09:28:36;;;;;;;6.43;3.75;;;;;;;;;;4985434;28;20516;-83
2022/04/30 09:31:06;;;;;;;6.75;4.28;;;;;;;;;;4983226;28;20427;-83
2022/04/30 09:33:33;;;;;;;7.93;3.72;;;;;;;;;;4986749;28;20421;-84
2022/04/30 09:38:46;;;;;;;6.37;3.90;;;;;;;;;;4985444;28;20403;-83
2022/04/30 09:41:13;;;;;;;4.38;3.65;;;;;;;;;;4983332;28;20831;-82
2022/04/30 09:43:39;;;;;;;7.22;3.22;;;;;;;;;;4982519;28;20444;-83
2022/04/30 09:46:07;;;;;;;5.70;3.37;;;;;;;;;;4982780;28;20422;-84
2022/04/30 09:54:02;;;;;;;5.80;3.40;;;;;;;;;;4985178;28;20479;-84
2022/04/30 09:56:35;;;;;;;6.75;3.30;;;;;;;;;;4983765;28;20433;-83
2022/04/30 09:59:05;;;;;;;5.55;3.10;;;;;;;;;;4987005;28;20438;-84
2022/04/30 10:01:32;;;;;;;6.45;3.00;;;;;;;;;;4983765;28;20682;-83
2022/04/30 10:03:59;;;;;;;4.13;3.10;;;;;;;;;;4985614;28;20475;-84
2022/04/30 10:06:27;;;;;;;4.60;3.10;;;;;;;;;;4983950;28;20455;-83
2022/04/30 10:08:54;;;;;;;5.22;2.90;;;;;;;;;;4984887;28;20420;-83
2022/04/30 10:11:26;;;;;;;6.88;2.80;;;;;;;;;;4982036;28;20465;-83
2022/04/30 10:13:59;;;;;;;3.15;2.50;;;;;;;;;;4983811;28;20438;-83
2022/04/30 10:16:28;;;;;;;4.65;3.05;;;;;;;;;;4984129;28;20428;-83
2022/04/30 10:18:58;;;;;;;8.05;3.22;;;;;;;;;;4985181;28;20460;-83
2022/04/30 10:21:24;;;;;;;6.28;3.25;;;;;;;;;;4979946;28;20453;-84
2022/04/30 10:24:01;;;;;;;6.13;3.00;;;;;;;;;;4982799;28;20801;-83
2022/04/30 10:26:27;;;;;;;6.00;2.90;;;;;;;;;;4983043;28;20499;-85
2022/04/30 10:28:57;;;;;;;4.78;2.70;;;;;;;;;;4983883;28;20496;-82
2022/04/30 10:31:24;;;;;;;4.78;2.70;;;;;;;;;;4983552;28;20438;-83
2022/04/30 10:33:50;;;;;;;4.88;2.80;;;;;;;;;;4986082;28;20445;-83
2022/04/30 10:36:18;;;;;;;5.30;2.60;;;;;;;;;;4982859;28;20432;-86
2022/04/30 10:38:53;;;;;;;4.78;2.70;;;;;;;;;;4987409;28;20507;-83
2022/04/30 10:41:21;;;;;;;3.85;2.53;;;;;;;;;;4986368;28;20461;-83
2022/04/30 10:43:47;;;;;;;5.10;2.80;;;;;;;;;;4986334;28;20443;-82
2022/04/30 10:46:19;;;;;;;4.15;2.70;;;;;;;;;;4984809;28;20930;-83
2022/04/30 10:48:46;;;;;;;5.57;2.55;;;;;;;;;;4983748;28;20909;-82
2022/04/30 10:51:13;;;;;;;6.72;2.70;;;;;;;;;;4982954;28;21389;-83
2022/04/30 10:53:40;;;;;;;4.88;2.85;;;;;;;;;;4981812;28;20422;-82
2022/04/30 10:56:06;;;;;;;6.50;2.65;;;;;;;;;;4985550;28;20442;-82
2022/04/30 10:58:35;;;;;;;4.70;2.40;;;;;;;;;;4983762;28;20430;-83
2022/04/30 11:01:10;;;;;;;4.03;2.60;;;;;;;;;;4984626;28;20906;-82
2022/04/30 11:03:37;;;;;;;3.42;2.30;;;;;;;;;;4984618;28;20438;-83
2022/04/30 11:06:03;;;;;;;4.40;2.10;;;;;;;;;;4989512;28;20831;-83
2022/04/30 11:08:29;;;;;;;2.20;2.00;;;;;;;;;;4986448;28;20438;-84
2022/04/30 11:10:56;;;;;;;3.30;1.83;;;;;;;;;;4986626;28;20422;-85
2022/04/30 11:13:23;;;;;;;2.92;2.20;;;;;;;;;;4989154;28;20442;-82
2022/04/30 11:15:50;;;;;;;2.75;2.20;;;;;;;;;;4983871;28;20440;-82
2022/04/30 11:18:18;;;;;;;3.53;1.87;;;;;;;;;;4980362;28;20443;-83
2022/04/30 11:20:45;;;;;;;3.42;2.60;;;;;;;;;;4983031;28;20444;-83
2022/04/30 11:23:20;;;;;;;22.25;9.05;;;;;;;;;;4983917;28;20435;-82
2022/04/30 11:25:47;;;;;;;5.75;2.28;;;;;;;;;;4983219;28;20479;-83
2022/04/30 11:28:13;;;;;;;6.65;2.60;;;;;;;;;;4984945;28;20426;-83
2022/04/30 11:30:40;;;;;;;4.18;2.40;;;;;;;;;;4981861;28;20487;-83
2022/04/30 11:33:08;;;;;;;53.25;8.88;;;;;;;;;;4984950;28;20442;-82
2022/04/30 11:35:35;;;;;;;39.63;8.63;;;;;;;;;;4982847;28;20451;-83
2022/04/30 11:38:01;;;;;;;13.48;4.80;;;;;;;;;;4983648;28;20518;-84
2022/04/30 11:40:27;;;;;;;22.48;4.55;;;;;;;;;;4980858;28;20440;-84
2022/04/30 11:42:57;;;;;;;3.00;2.40;;;;;;;;;;4983095;28;20493;-83
2022/04/30 11:45:24;;;;;;;3.42;2.35;;;;;;;;;;4980817;28;20439;-82
2022/04/30 11:47:50;;;;;;;2.50;2.30;;;;;;;;;;4983289;28;20436;-82
2022/04/30 11:50:17;;;;;;;6.78;2.22;;;;;;;;;;4980681;28;20432;-83
2022/04/30 11:52:44;;;;;;;10.02;3.03;;;;;;;;;;4981630;28;20463;-84
2022/04/30 11:55:10;;;;;;;11.35;3.92;;;;;;;;;;4982344;28;20998;-84
2022/04/30 11:57:42;;;;;;;3.90;2.40;;;;;;;;;;4984364;28;20434;-83
2022/04/30 12:00:08;;;;;;;3.15;2.10;;;;;;;;;;4981811;28;20436;-83
2022/04/30 12:02:37;;;;;;;3.35;2.00;;;;;;;;;;4984937;28;20433;-83
2022/04/30 12:05:04;;;;;;;2.80;2.00;;;;;;;;;;4981817;28;20484;-85
2022/04/30 12:07:39;;;;;;;3.22;1.88;;;;;;;;;;4985310;28;21115;-84
2022/04/30 12:10:14;;;;;;;4.27;2.10;;;;;;;;;;4987163;28;20467;-85
2022/04/30 12:12:41;;;;;;;2.38;1.90;;;;;;;;;;4987021;28;20436;-83
2022/04/30 12:15:16;;;;;;;1.95;1.75;;;;;;;;;;4981617;28;20423;-85
2022/04/30 12:17:43;;;;;;;4.07;2.00;;;;;;;;;;4981318;28;20860;-83
2022/04/30 12:25:46;;;;;;;3.20;1.90;;;;;;;;;;4980992;28;20429;-83
2022/04/30 12:28:12;;;;;;;4.50;1.95;;;;;;;;;;4983109;28;20490;-83
2022/04/30 12:30:49;;;;;;;2.00;1.73;;;;;;;;;;4981458;28;20525;-83
2022/04/30 12:33:15;;;;;;;2.80;2.08;;;;;;;;;;4982088;28;20438;-84
2022/04/30 12:35:42;;;;;;;4.00;1.73;;;;;;;;;;4980967;28;20434;-83
2022/04/30 12:38:11;;;;;;;3.45;1.80;;;;;;;;;;4981969;28;20522;-85
2022/04/30 12:40:39;;;;;;;4.60;2.40;;;;;;;;;;4981548;28;20930;-82
2022/04/30 12:43:06;;;;;;;4.10;2.20;;;;;;;;;;4982216;28;20435;-84
2022/04/30 12:45:33;;;;;;;5.00;2.00;;;;;;;;;;4978936;28;20434;-84
2022/04/30 12:47:59;;;;;;;2.60;2.13;;;;;;;;;;4983423;28;20927;-83
2022/04/30 12:50:26;;;;;;;3.10;1.80;;;;;;;;;;4981880;28;20433;-83
2022/04/30 12:52:52;;;;;;;2.85;2.20;;;;;;;;;;4982947;28;20955;-84
2022/04/30 12:55:20;;;;;;;3.20;2.00;;;;;;;;;;4982441;28;20422;-82
2022/04/30 12:57:47;;;;;;;4.20;1.90;;;;;;;;;;4983236;28;20436;-83
2022/04/30 13:00:14;;;;;;;2.92;1.90;;;;;;;;;;4980778;28;20453;-84
2022/04/30 13:02:41;;;;;;;3.10;2.03;;;;;;;;;;4982431;28;20442;-83
2022/04/30 13:05:08;;;;;;;3.70;2.05;;;;;;;;;;4983406;28;21021;-84
2022/04/30 13:07:34;;;;;;;4.43;2.05;;;;;;;;;;4982169;28;20531;-84
2022/04/30 13:15:30;;;;;;;3.17;1.67;;;;;;;;;;4982908;28;20616;-83
2022/04/30 13:17:56;;;;;;;2.38;1.60;;;;;;;;;;4983489;28;20473;-83
2022/04/30 13:20:23;;;;;;;5.00;1.80;;;;;;;;;;4980509;28;20441;-84
2022/04/30 13:22:51;;;;;;;2.70;1.50;;;;;;;;;;4983237;28;20893;-83
2022/04/30 13:25:18;;;;;;;2.30;1.90;;;;;;;;;;4985052;28;20424;-83
2022/04/30 13:27:46;;;;;;;3.33;1.90;;;;;;;;;;4987663;28;20858;-84
2022/04/30 13:30:15;;;;;;;5.68;2.20;;;;;;;;;;4986694;28;20434;-83
2022/04/30 13:32:41;;;;;;;1.95;1.67;;;;;;;;;;4987411;28;20496;-83
2022/04/30 13:35:08;;;;;;;5.40;2.40;;;;;;;;;;4985442;28;20435;-86
2022/04/30 13:37:40;;;;;;;2.60;2.00;;;;;;;;;;4985852;28;20861;-83
2022/04/30 13:40:07;;;;;;;3.50;1.90;;;;;;;;;;4986104;28;20549;-84
2022/04/30 13:42:33;;;;;;;2.88;2.00;;;;;;;;;;4987439;28;20424;-83
2022/04/30 13:45:00;;;;;;;2.70;1.73;;;;;;;;;;4986057;28;20428;-83
2022/04/30 13:47:27;;;;;;;3.22;1.90;;;;;;;;;;4986507;28;20475;-83
2022/04/30 13:49:53;;;;;;;2.95;1.90;;;;;;;;;;4985710;28;20438;-83
2022/04/30 13:52:19;;;;;;;2.30;1.50;;;;;;;;;;4985569;28;20418;-82
2022/04/30 13:54:46;;;;;;;2.92;1.90;;;;;;;;;;4985054;28;20415;-83
2022/04/30 13:57:12;;;;;;;2.17;1.93;;;;;;;;;;4987000;28;20430;-85
2022/04/30 13:59:39;;;;;;;1.92;1.70;;;;;;;;;;4986342;28;20422;-84
2022/04/30 14:02:08;;;;;;;2.50;1.95;;;;;;;;;;4986834;28;20446;-84
2022/04/30 14:04:36;;;;;;;1.92;1.83;;;;;;;;;;4985704;28;20482;-83
2022/04/30 14:07:02;;;;;;;1.85;1.75;;;;;;;;;;4988873;28;20438;-84
2022/04/30 14:09:28;;;;;;;3.22;1.90;;;;;;;;;;4985574;28;20501;-83
2022/04/30 14:11:55;;;;;;;3.50;2.20;;;;;;;;;;4987232;28;20488;-83
2022/04/30 14:18:15;;;;;;;2.10;1.90;;;;;;;;;;4986535;28;20453;-83
2022/04/30 14:19:54;;;;;;;3.30;2.25;;;;;;;;;;4984407;28;20407;-84
2022/04/30 14:22:20;;;;;;;2.30;2.10;;;;;;;;;;4986853;28;20464;-82
2022/04/30 14:24:47;;;;;;;6.35;2.08;;;;;;;;;;4983978;28;20422;-83
2022/04/30 14:27:13;;;;;;;3.65;2.35;;;;;;;;;;4986638;28;20430;-83
2022/04/30 14:29:41;;;;;;;3.60;2.72;;;;;;;;;;4981683;28;20434;-83
2022/04/30 14:32:09;;;;;;;3.13;2.73;;;;;;;;;;4987512;28;20446;-83
2022/04/30 14:34:35;;;;;;;3.45;2.60;;;;;;;;;;4986650;28;20429;-83
2022/04/30 14:37:01;;;;;;;3.40;2.60;;;;;;;;;;4986214;28;20508;-83
2022/04/30 14:39:27;;;;;;;3.60;2.60;;;;;;;;;;4984320;28;21144;-84
2022/04/30 14:41:53;;;;;;;4.80;3.10;;;;;;;;;;4985620;28;20437;-84
2022/04/30 14:44:20;;;;;;;3.33;2.30;;;;;;;;;;4985265;28;20936;-81
2022/04/30 14:46:46;;;;;;;3.35;2.70;;;;;;;;;;4987105;28;20437;-84
2022/04/30 14:49:14;;;;;;;3.00;2.70;;;;;;;;;;4987421;28;20508;-85
2022/04/30 14:51:40;;;;;;;3.00;2.50;;;;;;;;;;4983882;28;20460;-84
2022/04/30 14:54:06;;;;;;;4.28;2.78;;;;;;;;;;4983696;28;20523;-84
2022/04/30 14:56:33;;;;;;;3.50;2.70;;;;;;;;;;4985412;28;20445;-84
2022/04/30 14:59:00;;;;;;;4.00;2.30;;;;;;;;;;4985100;28;20504;-84
2022/04/30 15:01:26;;;;;;;4.40;3.40;;;;;;;;;;4981115;28;21812;-84
2022/04/30 15:03:53;;;;;;;3.50;2.97;;;;;;;;;;4986757;28;20412;-84
2022/04/30 15:06:20;;;;;;;3.20;2.90;;;;;;;;;;4978673;28;20430;-84
2022/04/30 15:08:46;;;;;;;3.25;2.95;;;;;;;;;;4984769;28;20441;-85
2022/04/30 15:11:13;;;;;;;5.40;3.13;;;;;;;;;;4984561;28;20432;-84
2022/04/30 15:13:39;;;;;;;3.40;2.70;;;;;;;;;;4986003;28;20778;-84
2022/04/30 15:16:05;;;;;;;4.50;2.80;;;;;;;;;;4985049;28;20434;-84
2022/04/30 15:18:32;;;;;;;4.00;2.30;;;;;;;;;;4985679;28;20448;-84
2022/04/30 15:20:58;;;;;;;5.05;2.33;;;;;;;;;;4982728;28;20490;-84
2022/04/30 15:23:26;;;;;;;2.50;2.10;;;;;;;;;;4984112;28;20815;-84